LIBQ  Monte Scuro Airport

Add Bookmark

Italy

Status
Operational
Latitude Longitude
39° 19' 12" N 16° 22' 47" E
39.320000 16.380000
Local (DST + 2) UTC (GMT + 1)
Aug 27, 2014 10:59 Aug 27, 2014 20:59
Sunrise-Sunset Local UTC
Begin Civil Twilight 05:49 03:49
Sunrise 06:17 04:17
Sunset 07:34 17:34
End Civil Twilight 08:02 18:02

Current Weather

METAR Observed VFR
LIBQ 271955Z 27009KT CAVOK 17/06 Q1021 Wed, Aug 27, 2014 @ 19:55 UTC
(1 Hour, 4 Minutes ago)
Visual Flight Rules
Wind Visibility Clouds Conditions
270° at 9 knots (17 kph) 10 km or more
  • Clear skies
  • No significant weather
Temperatures Readings Precipitation
Current Temp 17°C (63°F)
Dewpoint 6°C (43°F)
Humidity 49%
Altimeter 30.15"Hg
Sea Level Pressure 1021mb
Field Elevation 5643.04'
None Recorded

Additional weather within a 92.6km radius of LIBQ

Map ICAO Location
LICA 47.6km S (195°)
LIBC 70.2km E (121°)

24 Hour Weather History

Loading
-

24 Hour Weather Graphs

Loading
-

CheckWX.com is intended as a tool to help pilots better visualize weather data. It is not intended as a substitute for an official weather briefing obtained from a Flight Service Station. CheckWX.com does not meet the FAA requirements for an official pre-flight weather briefing. Therefore, it's important that pilots still call and obtain an official FSS pre-flight weather briefing.